Flight Track Log - Related Links

Times and Time Zones

All times are in EDT time to prevent confusion due to time zone crossing. See the UCA3597 flight status page for this flight to view local times or setup timezone preferences in your user account.

Time Position Orientation Groundspeed Altitude Reporting Facility
EDT Latitude Longitude Course Direction KTS MPH feet Rate Location/Type
Wed 07:23:11 PM 42.1869 -76.0519 215° Southwest 158 182 5,100  Level New York Center
Wed 07:24:11 PM 42.1544 -76.0828 215° Southwest 158 182 6,800 1,438 Climbing New York Center
Wed 07:25:12 PM 42.1131 -76.1186 213° Southwest 168 193 8,000 1,000 Climbing New York Center
Wed 07:26:11 PM 42.0611 -76.1675 215° Southwest 199 229 8,800 1,311 Climbing New York Center
Wed 07:27:11 PM 42.0025 -76.2158 212° Southwest 232 267 10,600 1,537 Climbing New York Center
Wed 07:28:12 PM 41.9528 -76.2564 211° Southwest 232 267 11,900 1,200 Climbing New York Center
Wed 07:29:11 PM 41.9031 -76.2997 213° Southwest 226 260 13,000 1,109 Climbing New York Center
Wed 07:30:11 PM 41.8553 -76.3403 212° Southwest 226 260 14,100 1,150 Climbing New York Center
Wed 07:31:11 PM 41.7989 -76.3883 212° Southwest 226 260 15,300 950 Climbing New York Center
Wed 07:32:11 PM 41.7447 -76.4339 212° Southwest 226 260 16,000 350 Climbing New York Center
Wed 07:33:11 PM 41.6858 -76.4844 213° Southwest 247 284 16,000  Level New York Center
Wed 07:34:11 PM 41.6253 -76.5347 212° Southwest 274 315 16,000  Level New York Center
Wed 07:35:11 PM 41.5603 -76.5872 211° Southwest 280 322 16,000  Level New York Center
Wed 07:36:11 PM 41.4883 -76.6475 212° Southwest 280 322 16,000  Level New York Center
Wed 07:37:11 PM 41.4253 -76.7058 215° Southwest 285 328 16,000  Level New York Center
Wed 07:38:11 PM 41.3581 -76.7578 210° Southwest 285 328 16,000  Level New York Center
Wed 07:39:11 PM 41.2833 -76.7925 199° South 285 328 16,000  Level New York Center
Wed 07:40:11 PM 41.2036 -76.8050 187° South 290 334 16,000  Level New York Center
Wed 07:41:11 PM 41.1236 -76.8197 188° South 296 341 16,000  Level New York Center
Wed 07:42:11 PM 41.0436 -76.8347 188° South 296 341 16,000  Level New York Center
Wed 07:43:11 PM 40.9636 -76.8494 188° South 296 341 16,000  Level New York Center
Wed 07:44:11 PM 40.8836 -76.8672 190° South 296 341 16,000  Level New York Center
Wed 07:45:11 PM 40.8119 -76.8800 188° South 296 341 16,000  Level New York Center
Wed 07:46:11 PM 40.7253 -76.9050 192° South 296 341 16,000  Level New York Center
Wed 07:47:11 PM 40.6556 -76.9261 193° South 296 341 16,000  Level New York Center
Wed 07:48:11 PM 40.5683 -76.9567 195° South 290 334 16,000  Level New York Center
Wed 07:49:11 PM 40.4964 -76.9775 192° South 290 334 16,000  Level New York Center
Wed 07:50:11 PM 40.4097 -77.0025 192° South 290 334 16,000  Level New York Center
Wed 07:51:11 PM 40.3375 -77.0258 194° South 290 334 16,000 -350 Level New York Center
Wed 07:52:11 PM 40.2506 -77.0533 194° South 300 345 15,300 -898 Descending New York Center
Wed 07:53:58 PM 40.1000 -77.1000 193° South 304 350 13,500 -971 Descending Potomac TRACON
Wed 07:55:04 PM 40.0333 -77.1167 191° South 297 342 12,500 -952 Descending Potomac TRACON
Wed 07:56:04 PM 39.9500 -77.1500 197° South 286 329 11,500 -750 Descending Potomac TRACON
Wed 07:57:04 PM 39.8667 -77.1667 189° South 277 319 11,000 -261 Descending Potomac TRACON
Wed 07:57:59 PM 39.8000 -77.1667 180° South 271 312 11,000  Level Potomac TRACON
Wed 07:58:59 PM 39.7333 -77.1500 169° South 273 314 11,000 -50 Level Potomac TRACON
Wed 07:59:59 PM 39.6833 -77.2167 226° Southwest 255 293 10,900 -500 Descending Potomac TRACON
Wed 08:00:59 PM 39.6500 -77.3000 243° Southwest 257 296 10,000 -857 Descending Potomac TRACON
Wed 08:02:05 PM 39.5833 -77.3500 210° Southwest 269 310 9,100 -857 Descending Potomac TRACON
Wed 08:03:05 PM 39.5000 -77.3500 180° South 279 321 8,200 -900 Descending Potomac TRACON
Wed 08:04:05 PM 39.4333 -77.3667 191° South 279 321 7,300 -900 Descending Potomac TRACON
Wed 08:05:05 PM 39.3500 -77.3667 180° South 280 322 6,400 -900 Descending Potomac TRACON
Wed 08:06:05 PM 39.2667 -77.3667 180° South 282 325 5,500 -700 Descending Potomac TRACON
Wed 08:07:05 PM 39.2000 -77.3500 169° South 279 321 5,000 -250 Descending Potomac TRACON
Wed 08:08:05 PM 39.1167 -77.3500 180° South 265 305 5,000 -200 Level Potomac TRACON
Wed 08:09:05 PM 39.0333 -77.3500 180° South 263 303 4,600 -474 Descending Potomac TRACON
Wed 08:09:59 PM 38.9833 -77.3500 180° South 273 314 4,100 -526 Descending Potomac TRACON
Wed 08:10:59 PM 38.9000 -77.3500 180° South 271 312 3,600 -550 Descending Potomac TRACON
Wed 08:11:59 PM 38.8333 -77.3667 191° South 249 287 3,000 -600 Descending Potomac TRACON
Wed 08:12:59 PM 38.7833 -77.4000 207° Southwest 211 243 2,400 -550 Descending Potomac TRACON
Wed 08:13:59 PM 38.8167 -77.4333 322° Northwest 195 224 1,900 -500 Descending Potomac TRACON
Wed 08:14:59 PM 38.8667 -77.4333 360° North 144 166 1,400 -550 Descending Potomac TRACON
Wed 08:15:59 PM 38.9000 -77.4333 360° North 117 135 800 -600 Descending Potomac TRACON

Login

Don't have an account? Register now (free) for customized features, flight alerts, and more!